createdAt,value
2023-01-02T00:01:06.551Z,11.47
2023-01-02T00:03:34.406Z,11.52
2023-01-02T00:06:05.927Z,11.51
2023-01-02T00:08:33.672Z,11.46
2023-01-02T00:11:01.356Z,11.40
2023-01-02T00:13:28.759Z,11.42
2023-01-02T00:15:56.605Z,11.36
2023-01-02T00:18:24.054Z,11.33
2023-01-02T00:20:51.628Z,11.21
2023-01-02T00:23:19.304Z,11.19
2023-01-02T00:25:48.524Z,11.13
2023-01-02T00:28:16.198Z,11.03
2023-01-02T00:30:43.940Z,10.99
2023-01-02T00:33:11.320Z,10.94
2023-01-02T00:35:39.184Z,10.93
2023-01-02T00:38:07.015Z,10.95
2023-01-02T00:40:34.786Z,10.98
2023-01-02T00:43:02.508Z,10.89
2023-01-02T00:45:30.223Z,10.88
2023-01-02T00:47:57.635Z,11.00
2023-01-02T00:50:25.284Z,10.92
2023-01-02T00:52:52.927Z,10.72
2023-01-02T00:55:20.339Z,10.72
2023-01-02T00:57:47.707Z,10.64
2023-01-02T01:00:21.617Z,10.81
2023-01-02T01:02:56.103Z,10.75
2023-01-02T01:05:28.260Z,10.68
2023-01-02T01:07:56.503Z,10.62
2023-01-02T01:10:25.372Z,10.50
2023-01-02T01:12:52.844Z,10.62
2023-01-02T01:15:20.290Z,10.57
2023-01-02T01:17:48.144Z,10.43
2023-01-02T01:20:15.747Z,10.41
2023-01-02T01:22:43.183Z,10.31
2023-01-02T01:25:11.126Z,10.23
2023-01-02T01:27:38.819Z,10.20
2023-01-02T01:30:07.246Z,10.19
2023-01-02T01:32:35.094Z,10.13
2023-01-02T01:35:02.590Z,10.08
2023-01-02T01:37:30.087Z,9.95
2023-01-02T01:39:57.761Z,9.91
2023-01-02T01:42:25.153Z,9.97
2023-01-02T01:44:54.436Z,9.84
2023-01-02T01:47:27.164Z,9.75
2023-01-02T01:50:04.710Z,9.68
2023-01-02T01:52:35.564Z,9.67
2023-01-02T01:55:19.545Z,9.59
2023-01-02T01:57:51.496Z,9.69
2023-01-02T02:00:18.943Z,9.55
2023-01-02T02:02:50.726Z,9.56
2023-01-02T02:05:22.606Z,9.57
2023-01-02T02:08:04.647Z,9.46
2023-01-02T02:10:32.395Z,9.40
2023-01-02T02:12:59.908Z,9.42
2023-01-02T02:16:06.036Z,9.46
2023-01-02T02:19:00.828Z,9.49
2023-01-02T02:21:31.001Z,9.60
2023-01-02T02:24:17.302Z,9.55
2023-01-02T02:27:00.503Z,9.67
2023-01-02T02:30:07.538Z,9.92
2023-01-02T02:33:01.098Z,9.94
2023-01-02T02:35:49.704Z,10.08
2023-01-02T02:38:27.353Z,10.24
2023-01-02T02:41:31.053Z,10.23
2023-01-02T02:44:13.179Z,10.32
2023-01-02T02:47:05.865Z,10.43
2023-01-02T02:49:39.505Z,10.51
2023-01-02T02:52:25.718Z,10.47
2023-01-02T02:55:11.867Z,10.55
2023-01-02T02:57:40.264Z,10.58
2023-01-02T03:00:10.170Z,10.60
2023-01-02T03:02:37.721Z,10.63
2023-01-02T03:05:08.243Z,10.73
2023-01-02T03:07:40.009Z,10.77
2023-01-02T03:10:13.883Z,10.85
2023-01-02T03:13:00.221Z,10.92
2023-01-02T03:15:35.377Z,11.02
2023-01-02T03:18:13.061Z,11.06
2023-01-02T03:20:46.532Z,10.99
2023-01-02T03:23:19.933Z,11.09
2023-01-02T03:25:48.050Z,11.24
2023-01-02T03:28:17.931Z,11.19
2023-01-02T03:30:46.073Z,11.12
2023-01-02T03:33:17.356Z,11.24
2023-01-02T03:35:54.339Z,11.29
2023-01-02T03:38:29.193Z,11.24
2023-01-02T03:41:09.436Z,11.32
2023-01-02T03:43:39.993Z,11.36
2023-01-02T03:46:26.176Z,11.46
2023-01-02T03:49:08.438Z,11.51
2023-01-02T03:51:36.057Z,11.47
2023-01-02T03:54:04.423Z,11.44
2023-01-02T03:56:47.153Z,11.46
2023-01-02T03:59:33.447Z,11.51
2023-01-02T04:02:10.122Z,11.62
2023-01-02T04:04:54.296Z,11.49
2023-01-02T04:07:34.574Z,11.56
2023-01-02T04:10:05.849Z,11.43
2023-01-02T04:12:36.177Z,11.42
2023-01-02T04:15:13.087Z,11.50
2023-01-02T04:18:00.347Z,11.42
2023-01-02T04:20:34.740Z,11.46
2023-01-02T04:23:07.270Z,11.46
2023-01-02T04:26:03.193Z,11.56
2023-01-02T04:28:32.523Z,11.56
2023-01-02T04:31:08.751Z,11.57
2023-01-02T04:33:44.038Z,11.59
2023-01-02T04:36:13.153Z,11.67
2023-01-02T04:38:42.804Z,11.58
2023-01-02T04:41:10.260Z,11.51
2023-01-02T04:43:37.891Z,11.55
2023-01-02T04:46:05.416Z,11.60
2023-01-02T04:48:32.845Z,11.57
2023-01-02T04:51:00.510Z,11.60
2023-01-02T04:53:27.900Z,11.65
2023-01-02T04:55:57.442Z,11.61
2023-01-02T04:58:26.820Z,11.52
2023-01-02T05:00:54.640Z,11.53
2023-01-02T05:03:22.171Z,11.50
2023-01-02T05:05:49.937Z,11.54
2023-01-02T05:08:17.318Z,11.49
2023-01-02T05:10:44.921Z,11.48
2023-01-02T05:13:12.570Z,11.56
2023-01-02T05:15:39.964Z,11.58
2023-01-02T05:18:07.396Z,11.57
2023-01-02T05:20:35.260Z,11.58
2023-01-02T05:23:21.344Z,11.51
2023-01-02T05:25:49.022Z,11.49
2023-01-02T05:28:16.402Z,11.50
2023-01-02T05:30:43.903Z,11.44
2023-01-02T05:33:11.608Z,11.50
2023-01-02T05:35:39.065Z,11.48
2023-01-02T05:38:06.538Z,11.46
2023-01-02T05:40:34.214Z,11.50
2023-01-02T05:43:01.604Z,11.54
2023-01-02T05:45:29.007Z,11.50
2023-01-02T05:47:56.696Z,11.51
2023-01-02T05:50:24.244Z,11.61
2023-01-02T05:52:51.661Z,11.52
2023-01-02T05:55:19.325Z,11.42
2023-01-02T05:57:46.822Z,11.53
2023-01-02T06:00:16.021Z,11.40
2023-01-02T06:02:48.120Z,11.49
2023-01-02T06:05:16.649Z,11.53
2023-01-02T06:07:44.510Z,11.39
2023-01-02T06:10:11.922Z,11.51
2023-01-02T06:12:39.285Z,11.41
2023-01-02T06:15:07.502Z,11.40
2023-01-02T06:17:35.119Z,11.46
2023-01-02T06:20:02.524Z,11.39
2023-01-02T06:22:30.577Z,11.39
2023-01-02T06:24:57.933Z,11.33
2023-01-02T06:27:25.300Z,11.31
2023-01-02T06:29:52.923Z,11.28
2023-01-02T06:32:20.510Z,11.19
2023-01-02T06:34:48.423Z,11.19
2023-01-02T06:37:16.185Z,11.30
2023-01-02T06:39:43.574Z,11.33
2023-01-02T06:42:10.993Z,11.32
2023-01-02T06:44:38.701Z,11.24
2023-01-02T06:47:06.133Z,11.34
2023-01-02T06:49:33.509Z,11.29
2023-01-02T06:52:01.218Z,11.27
2023-01-02T06:54:28.620Z,11.34
2023-01-02T06:56:56.038Z,11.34
2023-01-02T06:59:23.696Z,11.28
2023-01-02T07:01:51.212Z,11.40
2023-01-02T07:04:18.604Z,11.39
2023-01-02T07:06:46.284Z,11.41
2023-01-02T07:09:13.685Z,11.32
2023-01-02T07:11:41.110Z,11.23
2023-01-02T07:14:08.931Z,11.25
2023-01-02T07:16:36.347Z,11.32
2023-01-02T07:19:03.718Z,11.30
2023-01-02T07:21:31.400Z,11.31
2023-01-02T07:23:58.934Z,11.33
2023-01-02T07:26:26.352Z,11.30
2023-01-02T07:28:53.968Z,11.38
2023-01-02T07:31:22.436Z,11.37
2023-01-02T07:33:49.988Z,11.42
2023-01-02T07:36:19.052Z,11.43
2023-01-02T07:38:50.961Z,11.44
2023-01-02T07:41:21.266Z,11.44
2023-01-02T07:43:48.927Z,11.45
2023-01-02T07:46:18.151Z,11.40
2023-01-02T07:48:45.911Z,11.44
2023-01-02T07:51:16.411Z,11.47
2023-01-02T07:53:46.229Z,11.43
2023-01-02T07:56:13.699Z,11.51
2023-01-02T07:58:41.155Z,11.54
2023-01-02T08:01:11.072Z,11.49
2023-01-02T08:03:39.359Z,11.51
2023-01-02T08:06:09.080Z,11.68
2023-01-02T08:08:37.298Z,11.54
2023-01-02T08:11:06.727Z,11.60
2023-01-02T08:13:34.480Z,11.50
2023-01-02T08:16:12.284Z,11.56
2023-01-02T08:18:40.231Z,11.60
2023-01-02T08:21:08.019Z,11.54
2023-01-02T08:23:35.809Z,11.52
2023-01-02T08:26:06.321Z,11.56
2023-01-02T08:28:34.738Z,11.64
2023-01-02T08:31:02.289Z,11.62
2023-01-02T08:33:29.987Z,11.61
2023-01-02T08:35:57.416Z,11.63
2023-01-02T08:38:24.819Z,11.69
2023-01-02T08:40:52.934Z,11.81
2023-01-02T08:43:20.323Z,11.69
2023-01-02T08:45:47.734Z,11.67
2023-01-02T08:48:20.940Z,11.74
2023-01-02T08:50:50.001Z,11.74
2023-01-02T08:53:18.429Z,11.82
2023-01-02T08:55:45.899Z,11.88
2023-01-02T08:58:13.769Z,11.84
2023-01-02T09:00:41.558Z,11.82
2023-01-02T09:03:09.041Z,11.93
2023-01-02T09:05:36.511Z,11.91
2023-01-02T09:08:04.441Z,11.92
2023-01-02T09:10:31.824Z,11.90
2023-01-02T09:12:59.457Z,11.98
2023-01-02T09:15:27.296Z,11.87
2023-01-02T09:17:54.769Z,11.87
2023-01-02T09:20:22.175Z,11.85
2023-01-02T09:22:49.860Z,11.89
2023-01-02T09:25:23.712Z,11.75
2023-01-02T09:27:52.269Z,11.75
2023-01-02T09:30:19.941Z,12.13
2023-01-02T09:32:50.756Z,12.13
2023-01-02T09:35:18.632Z,12.11
2023-01-02T09:37:46.082Z,12.13
2023-01-02T09:40:14.605Z,12.01
2023-01-02T09:42:42.713Z,12.02
2023-01-02T09:45:10.534Z,11.92
2023-01-02T09:47:38.803Z,11.89
2023-01-02T09:50:11.542Z,11.95
2023-01-02T09:52:40.602Z,12.02
2023-01-02T09:55:19.892Z,11.90
2023-01-02T09:58:05.497Z,11.71
2023-01-02T10:00:35.481Z,11.92
2023-01-02T10:03:12.975Z,11.84
2023-01-02T10:06:05.616Z,11.87
2023-01-02T10:08:42.181Z,11.91
2023-01-02T10:11:28.782Z,11.79
2023-01-02T10:14:20.596Z,11.67
2023-01-02T10:16:55.395Z,11.74
2023-01-02T10:19:41.807Z,11.82
2023-01-02T10:22:19.445Z,11.88
2023-01-02T10:25:00.120Z,11.95
2023-01-02T10:27:35.149Z,11.96
2023-01-02T10:30:08.122Z,12.09
2023-01-02T10:32:36.026Z,12.11
2023-01-02T10:35:06.633Z,12.06
2023-01-02T10:37:34.976Z,12.22
2023-01-02T10:40:02.732Z,12.16
2023-01-02T10:42:31.599Z,12.24
2023-01-02T10:44:59.113Z,12.24
2023-01-02T10:47:37.696Z,12.19
2023-01-02T10:50:07.802Z,12.13
2023-01-02T10:52:45.840Z,12.20
2023-01-02T10:55:13.541Z,12.32
2023-01-02T10:57:42.502Z,12.45
2023-01-02T11:00:28.135Z,12.54
2023-01-02T11:03:17.372Z,12.49
2023-01-02T11:05:47.779Z,12.65
2023-01-02T11:08:18.321Z,12.73
2023-01-02T11:10:46.496Z,12.69
2023-01-02T11:13:16.387Z,12.83
2023-01-02T11:16:04.972Z,12.90
2023-01-02T11:18:34.323Z,12.89
2023-01-02T11:21:06.940Z,12.79
2023-01-02T11:23:43.859Z,12.86
2023-01-02T11:26:23.442Z,12.79
2023-01-02T11:28:52.287Z,12.87
2023-01-02T11:31:21.536Z,12.85
2023-01-02T11:33:49.137Z,12.81
2023-01-02T11:36:18.659Z,12.69
2023-01-02T11:38:54.540Z,12.74
2023-01-02T11:41:59.123Z,12.90
2023-01-02T11:44:32.236Z,12.93
2023-01-02T11:47:00.935Z,13.02
2023-01-02T11:49:38.058Z,13.17
2023-01-02T11:52:06.099Z,13.14
2023-01-02T11:54:44.475Z,13.25
2023-01-02T11:57:19.024Z,13.27
2023-01-02T11:59:48.629Z,13.31
2023-01-02T12:02:31.422Z,13.39
2023-01-02T12:04:59.120Z,13.44
2023-01-02T12:07:32.433Z,13.51
2023-01-02T12:10:08.959Z,13.51
2023-01-02T12:13:01.166Z,13.57
2023-01-02T12:15:40.988Z,13.65
2023-01-02T12:18:39.732Z,13.54
2023-01-02T12:21:13.603Z,13.40
2023-01-02T12:24:05.226Z,13.30
2023-01-02T12:27:02.862Z,13.51
2023-01-02T12:29:52.609Z,13.44
2023-01-02T12:32:41.043Z,13.38
2023-01-02T12:35:20.703Z,13.41
2023-01-02T12:37:55.087Z,13.33
2023-01-02T12:40:22.469Z,13.36
2023-01-02T12:43:22.081Z,13.51
2023-01-02T12:46:00.720Z,13.49
2023-01-02T12:49:00.627Z,13.56
2023-01-02T12:51:51.297Z,13.61
2023-01-02T12:54:24.953Z,13.64
2023-01-02T12:57:04.157Z,13.70
2023-01-02T13:00:09.407Z,13.75
2023-01-02T13:03:21.830Z,13.82
2023-01-02T13:05:52.439Z,13.89
2023-01-02T13:08:28.105Z,13.85
2023-01-02T13:10:59.272Z,14.02
2023-01-02T13:13:32.444Z,14.02
2023-01-02T13:16:04.301Z,14.01
2023-01-02T13:18:59.749Z,14.02
2023-01-02T13:21:36.678Z,13.92
2023-01-02T13:24:04.277Z,14.11
2023-01-02T13:26:32.000Z,14.01
2023-01-02T13:29:06.549Z,14.00
2023-01-02T13:31:52.580Z,14.15
2023-01-02T13:34:23.258Z,14.08
2023-01-02T13:36:59.999Z,14.18
2023-01-02T13:39:31.087Z,14.01
2023-01-02T13:42:19.268Z,14.01
2023-01-02T13:44:48.951Z,14.06
2023-01-02T13:47:25.633Z,14.23
2023-01-02T13:50:09.801Z,14.11
2023-01-02T13:52:38.037Z,14.10
2023-01-02T13:55:11.186Z,14.12
2023-01-02T13:57:39.032Z,14.15
2023-01-02T14:00:15.358Z,14.07
2023-01-02T14:03:32.686Z,14.13
2023-01-02T14:06:05.680Z,14.18
2023-01-02T14:08:42.365Z,14.19
2023-01-02T14:11:20.095Z,14.13
2023-01-02T14:13:50.774Z,14.08
2023-01-02T14:16:47.701Z,14.12
2023-01-02T14:19:16.787Z,14.11
2023-01-02T14:21:54.209Z,14.24
2023-01-02T14:24:31.094Z,14.12
2023-01-02T14:27:05.368Z,14.16
2023-01-02T14:29:40.556Z,14.00
2023-01-02T14:32:38.636Z,14.01
2023-01-02T14:35:21.955Z,13.91
2023-01-02T14:37:51.186Z,13.99
2023-01-02T14:40:21.812Z,13.81
2023-01-02T14:43:13.685Z,13.88
2023-01-02T14:45:47.823Z,13.81
2023-01-02T14:48:41.916Z,13.70
2023-01-02T14:51:24.514Z,13.63
2023-01-02T14:53:57.547Z,13.72
2023-01-02T14:56:33.175Z,13.70
2023-01-02T14:59:01.688Z,13.45
2023-01-02T15:01:42.323Z,13.39
2023-01-02T15:04:41.394Z,13.48
2023-01-02T15:07:27.814Z,13.32
2023-01-02T15:10:01.334Z,13.36
2023-01-02T15:12:50.106Z,13.30
2023-01-02T15:15:24.645Z,13.14
2023-01-02T15:17:52.496Z,12.93
2023-01-02T15:20:24.530Z,12.93
2023-01-02T15:22:52.419Z,12.86
2023-01-02T15:25:41.739Z,12.65
2023-01-02T15:28:23.575Z,12.81
2023-01-02T15:30:59.745Z,12.77
2023-01-02T15:33:32.830Z,12.44
2023-01-02T15:36:04.155Z,12.42
2023-01-02T15:38:32.166Z,12.33
2023-01-02T15:40:59.584Z,12.48
2023-01-02T15:43:47.407Z,12.36
2023-01-02T15:46:15.497Z,12.42
2023-01-02T15:48:44.077Z,12.37
2023-01-02T15:51:19.404Z,12.24
2023-01-02T15:53:50.052Z,12.34
2023-01-02T15:56:34.135Z,12.17
2023-01-02T15:59:01.872Z,12.10
2023-01-02T16:01:29.484Z,12.04
2023-01-02T16:04:04.756Z,12.14
2023-01-02T16:06:39.557Z,12.02
2023-01-02T16:09:17.332Z,12.02
2023-01-02T16:11:48.477Z,12.04
2023-01-02T16:14:21.298Z,12.20
2023-01-02T16:16:51.401Z,12.16
2023-01-02T16:19:26.094Z,12.08
2023-01-02T16:22:21.136Z,12.21
2023-01-02T16:25:26.855Z,12.15
2023-01-02T16:27:59.324Z,12.12
2023-01-02T16:30:40.887Z,12.03
2023-01-02T16:33:30.249Z,12.09
2023-01-02T16:36:10.499Z,12.07
2023-01-02T16:38:52.313Z,12.03
2023-01-02T16:41:36.886Z,12.01
2023-01-02T16:44:12.888Z,12.05
2023-01-02T16:46:41.847Z,12.03
2023-01-02T16:49:18.889Z,12.01
2023-01-02T16:51:48.618Z,12.13
2023-01-02T16:54:17.286Z,12.06
2023-01-02T16:56:44.687Z,12.35
2023-01-02T16:59:12.372Z,12.25
2023-01-02T17:01:39.825Z,12.24
2023-01-02T17:04:08.066Z,12.32
2023-01-02T17:06:35.802Z,12.23
2023-01-02T17:09:03.283Z,12.19
2023-01-02T17:11:30.722Z,12.31
2023-01-02T17:14:00.968Z,12.36
2023-01-02T17:16:28.598Z,12.32
2023-01-02T17:18:56.048Z,12.30
2023-01-02T17:21:27.712Z,12.19
2023-01-02T17:23:58.281Z,11.83
2023-01-02T17:26:26.011Z,11.99
2023-01-02T17:28:53.474Z,12.01
2023-01-02T17:31:25.565Z,12.05
2023-01-02T17:33:53.811Z,12.23
2023-01-02T17:36:21.448Z,12.10
2023-01-02T17:38:48.885Z,11.98
2023-01-02T17:41:16.592Z,12.12
2023-01-02T17:44:01.338Z,12.08
2023-01-02T17:49:21.037Z,12.02
2023-01-02T17:51:48.831Z,11.94
2023-01-02T17:54:16.523Z,11.96
2023-01-02T17:56:44.025Z,11.97
2023-01-02T17:59:12.913Z,12.08
2023-01-02T18:01:40.514Z,12.05
2023-01-02T18:04:08.423Z,11.89
2023-01-02T18:06:35.834Z,11.87
2023-01-02T18:09:03.752Z,11.90
2023-01-02T18:11:31.489Z,11.95
2023-01-02T18:13:58.998Z,11.93
2023-01-02T18:16:33.230Z,11.95
2023-01-02T18:19:01.356Z,11.83
2023-01-02T18:21:29.746Z,11.77
2023-01-02T18:23:58.938Z,11.82
2023-01-02T18:26:27.046Z,11.83
2023-01-02T18:29:02.752Z,11.85
2023-01-02T18:31:40.175Z,11.98
2023-01-02T18:34:46.275Z,12.11
2023-01-02T18:37:17.874Z,11.96
2023-01-02T18:39:45.408Z,11.73
2023-01-02T18:42:19.854Z,11.79
2023-01-02T18:44:47.585Z,11.81
2023-01-02T18:47:28.906Z,11.75
2023-01-02T18:50:01.542Z,11.87
2023-01-02T18:52:32.462Z,11.81
2023-01-02T18:55:21.886Z,11.87
2023-01-02T18:57:56.208Z,12.05
2023-01-02T19:00:28.191Z,11.73
2023-01-02T19:03:09.059Z,11.95
2023-01-02T19:05:39.707Z,11.83
2023-01-02T19:08:25.028Z,11.61
2023-01-02T19:10:55.301Z,11.65
2023-01-02T19:13:27.042Z,11.56
2023-01-02T19:15:58.345Z,11.64
2023-01-02T19:18:25.893Z,11.45
2023-01-02T19:21:18.602Z,11.51
2023-01-02T19:23:56.534Z,11.48
2023-01-02T19:26:34.308Z,11.52
2023-01-02T19:29:13.915Z,11.47
2023-01-02T19:32:04.598Z,11.46
2023-01-02T19:34:50.275Z,11.41
2023-01-02T19:37:40.507Z,11.58
2023-01-02T19:40:28.557Z,11.47
2023-01-02T19:42:55.925Z,11.47
2023-01-02T19:45:25.886Z,11.53
2023-01-02T19:47:53.686Z,11.38
2023-01-02T19:50:26.242Z,11.28
2023-01-02T19:52:54.140Z,11.13
2023-01-02T19:55:21.536Z,11.12
2023-01-02T19:57:48.981Z,11.13
2023-01-02T20:00:19.309Z,11.19
2023-01-02T20:02:51.431Z,11.11
2023-01-02T20:05:21.927Z,11.25
2023-01-02T20:07:53.502Z,11.20
2023-01-02T20:10:21.980Z,11.24
2023-01-02T20:12:50.155Z,11.19
2023-01-02T20:15:23.547Z,11.37
2023-01-02T20:17:52.573Z,11.20
2023-01-02T20:20:22.203Z,11.19
2023-01-02T20:22:51.671Z,11.09
2023-01-02T20:25:24.070Z,11.20
2023-01-02T20:27:53.697Z,11.27
2023-01-02T20:30:24.602Z,11.32
2023-01-02T20:32:53.752Z,11.36
2023-01-02T20:35:21.940Z,11.47
2023-01-02T20:37:49.409Z,11.47
2023-01-02T20:40:16.864Z,11.34
2023-01-02T20:42:44.591Z,11.35
2023-01-02T20:45:13.079Z,11.39
2023-01-02T20:47:40.606Z,11.12
2023-01-02T20:50:08.928Z,11.19
2023-01-02T20:52:36.418Z,11.21
2023-01-02T20:55:04.069Z,11.30
2023-01-02T20:57:31.735Z,11.19
2023-01-02T20:59:59.206Z,11.06
2023-01-02T21:02:26.928Z,11.13
2023-01-02T21:04:55.399Z,11.13
2023-01-02T21:07:22.810Z,10.95
2023-01-02T21:09:50.397Z,10.84
2023-01-02T21:12:36.615Z,11.05
2023-01-02T21:15:04.108Z,10.88
2023-01-02T21:17:31.791Z,10.82
2023-01-02T21:19:59.233Z,11.02
2023-01-02T21:22:27.022Z,10.78
2023-01-02T21:24:54.762Z,10.86
2023-01-02T21:27:22.191Z,10.90
2023-01-02T21:29:49.634Z,10.89
2023-01-02T21:32:17.311Z,10.96
2023-01-02T21:34:44.720Z,11.00
2023-01-02T21:37:12.156Z,11.00
2023-01-02T21:39:39.806Z,11.05
2023-01-02T21:42:16.145Z,10.72
2023-01-02T21:44:48.896Z,10.56
2023-01-02T21:47:17.177Z,10.47
2023-01-02T21:49:45.208Z,10.38
2023-01-02T21:52:12.999Z,10.28
2023-01-02T21:54:40.461Z,10.47
2023-01-02T21:57:08.170Z,10.22
2023-01-02T21:59:38.420Z,10.11
2023-01-02T22:02:06.767Z,10.25
2023-01-02T22:04:35.306Z,10.15
2023-01-02T22:09:51.302Z,10.07
2023-01-02T22:12:18.672Z,10.26
2023-01-02T22:14:46.318Z,10.33
2023-01-02T22:17:14.094Z,10.30
2023-01-02T22:19:41.617Z,10.12
2023-01-02T22:22:09.221Z,10.01
2023-01-02T22:24:44.041Z,10.08
2023-01-02T22:27:15.514Z,10.22
2023-01-02T22:30:19.494Z,10.02
2023-01-02T22:32:33.480Z,10.04
2023-01-02T22:35:03.114Z,10.02
2023-01-02T22:37:30.869Z,10.18
2023-01-02T22:39:58.236Z,10.19
2023-01-02T22:43:00.178Z,10.13
2023-01-02T22:45:31.922Z,10.30
2023-01-02T22:48:03.586Z,10.36
2023-01-02T22:50:41.719Z,10.26
2023-01-02T22:53:22.030Z,10.02
2023-01-02T22:55:49.777Z,10.04
2023-01-02T22:58:18.191Z,9.87
2023-01-02T23:00:47.579Z,10.05
2023-01-02T23:03:16.167Z,9.84
2023-01-02T23:05:44.246Z,9.90
2023-01-02T23:08:13.385Z,9.86
2023-01-02T23:10:40.909Z,9.84
2023-01-02T23:13:08.584Z,9.72
2023-01-02T23:15:36.340Z,9.74
2023-01-02T23:18:24.061Z,9.73
2023-01-02T23:20:51.751Z,9.50
2023-01-02T23:23:19.146Z,9.58
2023-01-02T23:25:47.311Z,9.41
2023-01-02T23:28:39.207Z,9.25
2023-01-02T23:31:02.633Z,9.10
2023-01-02T23:33:30.305Z,9.17
2023-01-02T23:35:57.706Z,9.31
2023-01-02T23:38:25.187Z,9.30
2023-01-02T23:40:52.935Z,9.06
2023-01-02T23:43:20.337Z,8.83
2023-01-02T23:45:47.766Z,8.77
2023-01-02T23:48:16.126Z,8.44
2023-01-02T23:50:46.291Z,8.23
2023-01-02T23:53:13.805Z,8.27
2023-01-02T23:55:42.830Z,8.41
2023-01-02T23:58:10.701Z,8.66
